sensor_id;sensor_type;location;lat;lon;timestamp;pressure;altitude;pressure_sealevel;temperature;humidity
19789;BME280;10054;59.332;18.244;2023-03-21T00:01:15;100587.81;;;0.26;100.00
19789;BME280;10054;59.332;18.244;2023-03-21T00:03:44;100587.72;;;0.31;100.00
19789;BME280;10054;59.332;18.244;2023-03-21T00:06:15;100591.06;;;0.36;100.00
19789;BME280;10054;59.332;18.244;2023-03-21T00:08:44;100589.67;;;0.41;100.00
19789;BME280;10054;59.332;18.244;2023-03-21T00:11:13;100586.98;;;0.45;100.00
19789;BME280;10054;59.332;18.244;2023-03-21T00:13:42;100581.66;;;0.51;100.00
19789;BME280;10054;59.332;18.244;2023-03-21T00:16:14;100587.77;;;0.68;100.00
19789;BME280;10054;59.332;18.244;2023-03-21T00:18:53;100592.77;;;0.76;100.00
19789;BME280;10054;59.332;18.244;2023-03-21T00:21:20;100585.96;;;0.72;100.00
19789;BME280;10054;59.332;18.244;2023-03-21T00:23:49;100585.21;;;0.67;100.00
19789;BME280;10054;59.332;18.244;2023-03-21T00:26:17;100584.02;;;0.62;100.00
19789;BME280;10054;59.332;18.244;2023-03-21T00:28:46;100583.20;;;0.60;100.00
19789;BME280;10054;59.332;18.244;2023-03-21T00:31:15;100577.56;;;0.60;100.00
19789;BME280;10054;59.332;18.244;2023-03-21T00:33:44;100574.18;;;0.57;100.00
19789;BME280;10054;59.332;18.244;2023-03-21T00:36:13;100579.03;;;0.53;100.00
19789;BME280;10054;59.332;18.244;2023-03-21T00:38:42;100582.10;;;0.51;100.00
19789;BME280;10054;59.332;18.244;2023-03-21T00:41:12;100575.20;;;0.50;100.00
19789;BME280;10054;59.332;18.244;2023-03-21T00:43:43;100575.30;;;0.45;100.00
19789;BME280;10054;59.332;18.244;2023-03-21T00:46:14;100572.70;;;0.45;100.00
19789;BME280;10054;59.332;18.244;2023-03-21T00:48:43;100577.52;;;0.43;100.00
19789;BME280;10054;59.332;18.244;2023-03-21T00:51:14;100570.66;;;0.40;100.00
19789;BME280;10054;59.332;18.244;2023-03-21T00:53:43;100574.10;;;0.41;100.00
19789;BME280;10054;59.332;18.244;2023-03-21T00:56:12;100565.91;;;0.40;100.00
19789;BME280;10054;59.332;18.244;2023-03-21T00:58:41;100573.25;;;0.40;100.00
19789;BME280;10054;59.332;18.244;2023-03-21T01:01:11;100572.80;;;0.41;100.00
19789;BME280;10054;59.332;18.244;2023-03-21T01:03:40;100571.47;;;0.42;100.00
19789;BME280;10054;59.332;18.244;2023-03-21T01:06:13;100573.53;;;0.47;100.00
19789;BME280;10054;59.332;18.244;2023-03-21T01:08:44;100578.92;;;0.57;100.00
19789;BME280;10054;59.332;18.244;2023-03-21T01:11:16;100571.62;;;0.55;100.00
19789;BME280;10054;59.332;18.244;2023-03-21T01:13:46;100579.87;;;0.53;100.00
19789;BME280;10054;59.332;18.244;2023-03-21T01:16:15;100581.34;;;0.46;100.00
19789;BME280;10054;59.332;18.244;2023-03-21T01:18:44;100583.16;;;0.42;100.00
19789;BME280;10054;59.332;18.244;2023-03-21T01:21:14;100589.27;;;0.40;100.00
19789;BME280;10054;59.332;18.244;2023-03-21T01:23:43;100594.67;;;0.29;100.00
19789;BME280;10054;59.332;18.244;2023-03-21T01:26:13;100588.28;;;0.24;100.00
19789;BME280;10054;59.332;18.244;2023-03-21T01:28:44;100591.39;;;0.21;100.00
19789;BME280;10054;59.332;18.244;2023-03-21T01:31:15;100589.20;;;0.22;100.00
19789;BME280;10054;59.332;18.244;2023-03-21T01:33:45;100591.80;;;0.22;100.00
19789;BME280;10054;59.332;18.244;2023-03-21T01:36:18;100587.50;;;0.21;100.00
19789;BME280;10054;59.332;18.244;2023-03-21T01:38:49;100591.77;;;0.23;100.00
19789;BME280;10054;59.332;18.244;2023-03-21T01:41:33;100600.88;;;0.22;100.00
19789;BME280;10054;59.332;18.244;2023-03-21T01:44:02;100596.07;;;0.24;100.00
19789;BME280;10054;59.332;18.244;2023-03-21T01:46:41;100595.72;;;0.20;100.00
19789;BME280;10054;59.332;18.244;2023-03-21T01:52:01;100597.94;;;0.18;100.00
19789;BME280;10054;59.332;18.244;2023-03-21T01:54:34;100593.16;;;0.19;100.00
19789;BME280;10054;59.332;18.244;2023-03-21T01:57:12;100595.66;;;0.23;100.00
19789;BME280;10054;59.332;18.244;2023-03-21T01:59:50;100598.57;;;0.29;100.00
19789;BME280;10054;59.332;18.244;2023-03-21T02:02:34;100596.73;;;0.34;100.00
19789;BME280;10054;59.332;18.244;2023-03-21T02:05:32;100600.53;;;0.39;100.00
19789;BME280;10054;59.332;18.244;2023-03-21T02:08:01;100609.14;;;0.41;100.00
19789;BME280;10054;59.332;18.244;2023-03-21T02:10:32;100605.63;;;0.43;100.00
19789;BME280;10054;59.332;18.244;2023-03-21T02:13:03;100609.92;;;0.44;100.00
19789;BME280;10054;59.332;18.244;2023-03-21T02:15:36;100611.77;;;0.39;100.00
19789;BME280;10054;59.332;18.244;2023-03-21T02:21:06;100608.59;;;0.46;100.00
19789;BME280;10054;59.332;18.244;2023-03-21T02:29:01;100611.83;;;0.36;100.00
19789;BME280;10054;59.332;18.244;2023-03-21T02:31:51;100612.78;;;0.32;100.00
19789;BME280;10054;59.332;18.244;2023-03-21T02:34:41;100618.44;;;0.30;100.00
19789;BME280;10054;59.332;18.244;2023-03-21T02:37:21;100613.19;;;0.33;100.00
19789;BME280;10054;59.332;18.244;2023-03-21T02:45:38;100622.23;;;0.35;100.00
19789;BME280;10054;59.332;18.244;2023-03-21T02:48:15;100616.16;;;0.36;100.00
19789;BME280;10054;59.332;18.244;2023-03-21T02:50:53;100614.07;;;0.32;100.00
19789;BME280;10054;59.332;18.244;2023-03-21T02:53:25;100618.41;;;0.31;100.00
19789;BME280;10054;59.332;18.244;2023-03-21T02:55:57;100618.41;;;0.31;100.00
19789;BME280;10054;59.332;18.244;2023-03-21T02:58:29;100622.71;;;0.32;100.00
19789;BME280;10054;59.332;18.244;2023-03-21T03:00:59;100620.09;;;0.34;100.00
19789;BME280;10054;59.332;18.244;2023-03-21T03:03:32;100617.91;;;0.35;100.00
19789;BME280;10054;59.332;18.244;2023-03-21T03:06:20;100612.30;;;0.34;100.00
19789;BME280;10054;59.332;18.244;2023-03-21T03:11:42;100624.36;;;0.37;100.00
19789;BME280;10054;59.332;18.244;2023-03-21T03:17:08;100622.08;;;0.42;100.00
19789;BME280;10054;59.332;18.244;2023-03-21T03:19:39;100619.01;;;0.44;100.00
19789;BME280;10054;59.332;18.244;2023-03-21T03:22:23;100621.54;;;0.47;100.00
19789;BME280;10054;59.332;18.244;2023-03-21T03:24:54;100627.14;;;0.48;100.00
19789;BME280;10054;59.332;18.244;2023-03-21T03:27:24;100626.09;;;0.57;100.00
19789;BME280;10054;59.332;18.244;2023-03-21T03:29:54;100626.27;;;0.69;100.00
19789;BME280;10054;59.332;18.244;2023-03-21T03:32:52;100627.57;;;0.69;100.00
19789;BME280;10054;59.332;18.244;2023-03-21T03:35:17;100627.16;;;0.68;100.00
19789;BME280;10054;59.332;18.244;2023-03-21T03:37:53;100621.69;;;0.60;100.00
19789;BME280;10054;59.332;18.244;2023-03-21T03:40:47;100624.77;;;0.58;100.00
19789;BME280;10054;59.332;18.244;2023-03-21T03:43:17;100626.91;;;0.59;100.00
19789;BME280;10054;59.332;18.244;2023-03-21T03:45:50;100628.72;;;0.55;100.00
19789;BME280;10054;59.332;18.244;2023-03-21T03:48:35;100630.49;;;0.53;100.00
19789;BME280;10054;59.332;18.244;2023-03-21T03:51:13;100634.39;;;0.53;100.00
19789;BME280;10054;59.332;18.244;2023-03-21T03:54:05;100635.21;;;0.55;100.00
19789;BME280;10054;59.332;18.244;2023-03-21T03:56:34;100639.04;;;0.58;100.00
19789;BME280;10054;59.332;18.244;2023-03-21T03:59:04;100644.64;;;0.59;100.00
19789;BME280;10054;59.332;18.244;2023-03-21T04:01:36;100646.34;;;0.60;100.00
19789;BME280;10054;59.332;18.244;2023-03-21T04:04:05;100651.95;;;0.61;100.00
19789;BME280;10054;59.332;18.244;2023-03-21T04:06:34;100650.66;;;0.61;100.00
19789;BME280;10054;59.332;18.244;2023-03-21T04:09:05;100649.80;;;0.61;100.00
19789;BME280;10054;59.332;18.244;2023-03-21T04:11:35;100646.38;;;0.59;100.00
19789;BME280;10054;59.332;18.244;2023-03-21T04:14:04;100645.49;;;0.60;100.00
19789;BME280;10054;59.332;18.244;2023-03-21T04:16:33;100642.05;;;0.59;100.00
19789;BME280;10054;59.332;18.244;2023-03-21T04:19:02;100645.08;;;0.59;100.00
19789;BME280;10054;59.332;18.244;2023-03-21T04:21:30;100648.53;;;0.59;100.00
19789;BME280;10054;59.332;18.244;2023-03-21T04:24:00;100650.31;;;0.57;100.00
19789;BME280;10054;59.332;18.244;2023-03-21T04:26:29;100642.55;;;0.56;100.00
19789;BME280;10054;59.332;18.244;2023-03-21T04:29:13;100654.20;;;0.57;100.00
19789;BME280;10054;59.332;18.244;2023-03-21T04:32:02;100648.53;;;0.59;100.00
19789;BME280;10054;59.332;18.244;2023-03-21T04:34:31;100647.68;;;0.59;100.00
19789;BME280;10054;59.332;18.244;2023-03-21T04:37:01;100650.72;;;0.58;100.00
19789;BME280;10054;59.332;18.244;2023-03-21T04:39:31;100653.73;;;0.59;100.00
19789;BME280;10054;59.332;18.244;2023-03-21T04:42:00;100651.89;;;0.64;100.00
19789;BME280;10054;59.332;18.244;2023-03-21T04:44:29;100660.05;;;0.67;100.00
19789;BME280;10054;59.332;18.244;2023-03-21T04:46:58;100658.38;;;0.64;100.00
19789;BME280;10054;59.332;18.244;2023-03-21T04:49:28;100669.64;;;0.63;100.00
19789;BME280;10054;59.332;18.244;2023-03-21T04:51:57;100668.89;;;0.58;100.00
19789;BME280;10054;59.332;18.244;2023-03-21T04:54:27;100669.42;;;0.53;100.00
19789;BME280;10054;59.332;18.244;2023-03-21T04:56:57;100660.41;;;0.50;100.00
19789;BME280;10054;59.332;18.244;2023-03-21T04:59:27;100666.07;;;0.48;100.00
19789;BME280;10054;59.332;18.244;2023-03-21T05:01:55;100672.14;;;0.47;100.00
19789;BME280;10054;59.332;18.244;2023-03-21T05:04:25;100677.75;;;0.48;100.00
19789;BME280;10054;59.332;18.244;2023-03-21T05:06:56;100680.38;;;0.47;100.00
19789;BME280;10054;59.332;18.244;2023-03-21T05:09:25;100684.27;;;0.47;100.00
19789;BME280;10054;59.332;18.244;2023-03-21T05:11:55;100688.19;;;0.45;100.00
19789;BME280;10054;59.332;18.244;2023-03-21T05:14:25;100687.75;;;0.46;100.00
19789;BME280;10054;59.332;18.244;2023-03-21T05:16:54;100683.47;;;0.43;100.00
19789;BME280;10054;59.332;18.244;2023-03-21T05:19:26;100683.47;;;0.43;100.00
19789;BME280;10054;59.332;18.244;2023-03-21T05:21:56;100678.70;;;0.44;100.00
19789;BME280;10054;59.332;18.244;2023-03-21T05:24:26;100682.59;;;0.44;100.00
19789;BME280;10054;59.332;18.244;2023-03-21T05:26:55;100681.27;;;0.46;100.00
19789;BME280;10054;59.332;18.244;2023-03-21T05:29:31;100688.61;;;0.46;100.00
19789;BME280;10054;59.332;18.244;2023-03-21T05:32:03;100689.88;;;0.48;100.00
19789;BME280;10054;59.332;18.244;2023-03-21T05:34:32;100685.06;;;0.50;100.00
19789;BME280;10054;59.332;18.244;2023-03-21T05:37:01;100690.60;;;0.54;100.00
19789;BME280;10054;59.332;18.244;2023-03-21T05:39:34;100688.45;;;0.54;100.00
19789;BME280;10054;59.332;18.244;2023-03-21T05:42:05;100680.19;;;0.56;100.00
19789;BME280;10054;59.332;18.244;2023-03-21T05:44:33;100683.14;;;0.60;100.00
19789;BME280;10054;59.332;18.244;2023-03-21T05:47:04;100678.77;;;0.62;100.00
19789;BME280;10054;59.332;18.244;2023-03-21T05:49:38;100676.14;;;0.63;100.00
19789;BME280;10054;59.332;18.244;2023-03-21T05:52:07;100676.08;;;0.67;100.00
19789;BME280;10054;59.332;18.244;2023-03-21T05:54:36;100674.99;;;0.75;100.00
19789;BME280;10054;59.332;18.244;2023-03-21T05:57:05;100673.63;;;0.78;100.00
19789;BME280;10054;59.332;18.244;2023-03-21T05:59:39;100675.91;;;0.74;100.00
19789;BME280;10054;59.332;18.244;2023-03-21T06:02:08;100676.92;;;0.67;100.00
19789;BME280;10054;59.332;18.244;2023-03-21T06:04:37;100678.39;;;0.59;100.00
19789;BME280;10054;59.332;18.244;2023-03-21T06:07:06;100684.53;;;0.55;100.00
19789;BME280;10054;59.332;18.244;2023-03-21T06:09:36;100685.89;;;0.52;100.00
19789;BME280;10054;59.332;18.244;2023-03-21T06:12:05;100692.38;;;0.52;100.00
19789;BME280;10054;59.332;18.244;2023-03-21T06:14:52;100691.58;;;0.49;100.00
19789;BME280;10054;59.332;18.244;2023-03-21T06:17:23;100698.10;;;0.47;100.00
19789;BME280;10054;59.332;18.244;2023-03-21T06:19:53;100700.70;;;0.47;100.00
19789;BME280;10054;59.332;18.244;2023-03-21T06:22:27;100698.10;;;0.47;100.00
19789;BME280;10054;59.332;18.244;2023-03-21T06:24:55;100697.63;;;0.49;100.00
19789;BME280;10054;59.332;18.244;2023-03-21T06:27:24;100702.28;;;0.54;100.00
19789;BME280;10054;59.332;18.244;2023-03-21T06:29:54;100703.08;;;0.58;100.00
19789;BME280;10054;59.332;18.244;2023-03-21T06:32:26;100694.41;;;0.59;100.00
19789;BME280;10054;59.332;18.244;2023-03-21T06:34:57;100699.91;;;0.64;100.00
19789;BME280;10054;59.332;18.244;2023-03-21T06:37:26;100698.90;;;0.72;100.00
19789;BME280;10054;59.332;18.244;2023-03-21T06:39:56;100695.77;;;0.75;100.00
19789;BME280;10054;59.332;18.244;2023-03-21T06:42:25;100692.97;;;0.84;100.00
19789;BME280;10054;59.332;18.244;2023-03-21T06:44:55;100696.30;;;0.91;100.00
19789;BME280;10054;59.332;18.244;2023-03-21T06:47:24;100697.08;;;0.94;100.00
19789;BME280;10054;59.332;18.244;2023-03-21T06:49:53;100693.56;;;0.97;100.00
19789;BME280;10054;59.332;18.244;2023-03-21T06:52:22;100696.57;;;0.98;100.00
19789;BME280;10054;59.332;18.244;2023-03-21T06:54:53;100700.33;;;1.04;100.00
19789;BME280;10054;59.332;18.244;2023-03-21T06:57:23;100704.53;;;1.10;100.00
19789;BME280;10054;59.332;18.244;2023-03-21T06:59:53;100697.46;;;1.16;100.00
19789;BME280;10054;59.332;18.244;2023-03-21T07:02:23;100698.21;;;1.21;100.00
19789;BME280;10054;59.332;18.244;2023-03-21T07:04:59;100708.91;;;1.27;100.00
19789;BME280;10054;59.332;18.244;2023-03-21T07:07:29;100705.39;;;1.29;100.00
19789;BME280;10054;59.332;18.244;2023-03-21T07:09:58;100706.55;;;1.36;100.00
19789;BME280;10054;59.332;18.244;2023-03-21T07:12:29;100703.84;;;1.40;100.00
19789;BME280;10054;59.332;18.244;2023-03-21T07:15:07;100698.16;;;1.42;100.00
19789;BME280;10054;59.332;18.244;2023-03-21T07:17:37;100701.98;;;1.45;100.00
19789;BME280;10054;59.332;18.244;2023-03-21T07:20:06;100697.53;;;1.49;100.00
19789;BME280;10054;59.332;18.244;2023-03-21T07:22:35;100702.03;;;1.60;100.00
19789;BME280;10054;59.332;18.244;2023-03-21T07:25:06;100709.16;;;1.70;100.00
19789;BME280;10054;59.332;18.244;2023-03-21T07:27:39;100711.72;;;1.71;100.00
19789;BME280;10054;59.332;18.244;2023-03-21T07:30:09;100714.33;;;1.71;100.00
19789;BME280;10054;59.332;18.244;2023-03-21T07:32:38;100709.53;;;1.72;100.00
19789;BME280;10054;59.332;18.244;2023-03-21T07:35:09;100713.80;;;1.75;100.00
19789;BME280;10054;59.332;18.244;2023-03-21T07:37:41;100708.97;;;1.77;100.00
19789;BME280;10054;59.332;18.244;2023-03-21T07:40:12;100705.81;;;1.82;100.00
19789;BME280;10054;59.332;18.244;2023-03-21T07:42:41;100713.05;;;1.87;100.00
19789;BME280;10054;59.332;18.244;2023-03-21T07:45:11;100712.08;;;1.91;100.00
19789;BME280;10054;59.332;18.244;2023-03-21T07:47:42;100713.70;;;1.95;100.00
19789;BME280;10054;59.332;18.244;2023-03-21T07:50:11;100713.19;;;1.99;100.00
19789;BME280;10054;59.332;18.244;2023-03-21T07:52:40;100714.77;;;2.05;100.00
19789;BME280;10054;59.332;18.244;2023-03-21T07:55:09;100720.75;;;2.08;100.00
19789;BME280;10054;59.332;18.244;2023-03-21T07:57:38;100722.78;;;2.13;100.00
19789;BME280;10054;59.332;18.244;2023-03-21T08:00:08;100723.52;;;2.18;100.00
19789;BME280;10054;59.332;18.244;2023-03-21T08:02:39;100720.39;;;2.22;100.00
19789;BME280;10054;59.332;18.244;2023-03-21T08:05:08;100723.69;;;2.27;100.00
19789;BME280;10054;59.332;18.244;2023-03-21T08:07:38;100726.17;;;2.31;100.00
19789;BME280;10054;59.332;18.244;2023-03-21T08:10:08;100728.25;;;2.35;100.00
19789;BME280;10054;59.332;18.244;2023-03-21T08:12:38;100722.02;;;2.41;100.00
19789;BME280;10054;59.332;18.244;2023-03-21T08:15:07;100728.41;;;2.45;100.00
19789;BME280;10054;59.332;18.244;2023-03-21T08:17:36;100726.44;;;2.53;100.00
19789;BME280;10054;59.332;18.244;2023-03-21T08:20:07;100727.89;;;2.63;100.00
19789;BME280;10054;59.332;18.244;2023-03-21T08:22:38;100719.86;;;2.71;100.00
19789;BME280;10054;59.332;18.244;2023-03-21T08:25:09;100725.13;;;2.84;100.00
19789;BME280;10054;59.332;18.244;2023-03-21T08:27:43;100725.50;;;3.00;100.00
19789;BME280;10054;59.332;18.244;2023-03-21T08:30:15;100719.11;;;3.10;100.00
19789;BME280;10054;59.332;18.244;2023-03-21T08:32:44;100732.36;;;3.17;100.00
19789;BME280;10054;59.332;18.244;2023-03-21T08:35:15;100731.82;;;3.21;100.00
19789;BME280;10054;59.332;18.244;2023-03-21T08:37:44;100731.28;;;3.24;100.00
19789;BME280;10054;59.332;18.244;2023-03-21T08:40:16;100732.67;;;3.21;100.00
19789;BME280;10054;59.332;18.244;2023-03-21T08:42:45;100729.71;;;3.19;100.00
19789;BME280;10054;59.332;18.244;2023-03-21T08:45:15;100731.33;;;3.23;100.00
19789;BME280;10054;59.332;18.244;2023-03-21T08:47:45;100727.44;;;3.36;100.00
19789;BME280;10054;59.332;18.244;2023-03-21T08:50:17;100723.95;;;3.50;100.00
19789;BME280;10054;59.332;18.244;2023-03-21T08:52:45;100729.73;;;3.60;100.00
19789;BME280;10054;59.332;18.244;2023-03-21T08:55:15;100733.05;;;3.65;100.00
19789;BME280;10054;59.332;18.244;2023-03-21T08:57:45;100729.03;;;3.68;100.00
19789;BME280;10054;59.332;18.244;2023-03-21T09:00:16;100725.36;;;3.60;100.00
19789;BME280;10054;59.332;18.244;2023-03-21T09:02:48;100728.97;;;3.56;100.00
19789;BME280;10054;59.332;18.244;2023-03-21T09:05:19;100725.67;;;3.65;100.00
19789;BME280;10054;59.332;18.244;2023-03-21T09:07:48;100716.41;;;3.81;100.00
19789;BME280;10054;59.332;18.244;2023-03-21T09:10:19;100719.56;;;3.90;100.00
19789;BME280;10054;59.332;18.244;2023-03-21T09:12:50;100722.77;;;3.99;100.00
19789;BME280;10054;59.332;18.244;2023-03-21T09:15:21;100716.23;;;4.12;100.00
19789;BME280;10054;59.332;18.244;2023-03-21T09:17:51;100716.60;;;4.26;100.00
19789;BME280;10054;59.332;18.244;2023-03-21T09:20:22;100717.42;;;4.40;100.00
19789;BME280;10054;59.332;18.244;2023-03-21T09:22:53;100719.80;;;4.57;100.00
19789;BME280;10054;59.332;18.244;2023-03-21T09:25:22;100711.80;;;4.74;100.00
19789;BME280;10054;59.332;18.244;2023-03-21T09:27:51;100712.83;;;4.81;100.00
19789;BME280;10054;59.332;18.244;2023-03-21T09:30:21;100713.17;;;4.84;100.00
19789;BME280;10054;59.332;18.244;2023-03-21T09:32:49;100714.58;;;4.92;100.00
19789;BME280;10054;59.332;18.244;2023-03-21T09:35:20;100713.44;;;5.00;100.00
19789;BME280;10054;59.332;18.244;2023-03-21T09:37:49;100716.34;;;5.04;100.00
19789;BME280;10054;59.332;18.244;2023-03-21T09:40:28;100713.61;;;5.07;100.00
19789;BME280;10054;59.332;18.244;2023-03-21T09:43:26;100718.60;;;5.13;100.00
19789;BME280;10054;59.332;18.244;2023-03-21T09:45:57;100713.84;;;5.22;100.00
19789;BME280;10054;59.332;18.244;2023-03-21T09:51:07;100711.41;;;5.40;100.00
19789;BME280;10054;59.332;18.244;2023-03-21T09:53:37;100713.60;;;5.50;100.00
19789;BME280;10054;59.332;18.244;2023-03-21T09:56:09;100714.27;;;5.55;100.00
19789;BME280;10054;59.332;18.244;2023-03-21T10:01:15;100709.27;;;5.71;100.00
19789;BME280;10054;59.332;18.244;2023-03-21T10:04:06;100706.59;;;5.83;100.00
19789;BME280;10054;59.332;18.244;2023-03-21T10:06:38;100707.69;;;5.89;100.00
19789;BME280;10054;59.332;18.244;2023-03-21T10:09:18;100708.02;;;5.91;100.00
19789;BME280;10054;59.332;18.244;2023-03-21T10:11:54;100709.33;;;5.91;100.00
19789;BME280;10054;59.332;18.244;2023-03-21T10:14:26;100704.87;;;5.93;100.00
19789;BME280;10054;59.332;18.244;2023-03-21T10:19:47;100695.23;;;6.04;100.00
19789;BME280;10054;59.332;18.244;2023-03-21T10:22:17;100696.60;;;6.03;100.00
19789;BME280;10054;59.332;18.244;2023-03-21T10:24:45;100698.44;;;6.11;100.00
19789;BME280;10054;59.332;18.244;2023-03-21T10:27:15;100699.68;;;6.22;100.00
19789;BME280;10054;59.332;18.244;2023-03-21T10:29:44;100691.16;;;6.28;100.00
19789;BME280;10054;59.332;18.244;2023-03-21T10:32:15;100690.70;;;6.38;100.00
19789;BME280;10054;59.332;18.244;2023-03-21T10:34:49;100691.28;;;6.45;100.00
19789;BME280;10054;59.332;18.244;2023-03-21T10:37:19;100687.94;;;6.41;100.00
19789;BME280;10054;59.332;18.244;2023-03-21T10:39:50;100687.48;;;6.42;100.00
19789;BME280;10054;59.332;18.244;2023-03-21T10:42:21;100688.06;;;6.48;100.00
19789;BME280;10054;59.332;18.244;2023-03-21T10:44:53;100680.59;;;6.49;100.00
19789;BME280;10054;59.332;18.244;2023-03-21T10:47:31;100685.23;;;6.53;100.00
19789;BME280;10054;59.332;18.244;2023-03-21T10:50:10;100677.95;;;6.59;100.00
19789;BME280;10054;59.332;18.244;2023-03-21T10:52:45;100677.50;;;6.69;100.00
19789;BME280;10054;59.332;18.244;2023-03-21T10:55:27;100679.77;;;6.76;100.00
19789;BME280;10054;59.332;18.244;2023-03-21T10:58:05;100677.05;;;6.88;100.00
19789;BME280;10054;59.332;18.244;2023-03-21T11:00:37;100679.45;;;6.92;100.00
19789;BME280;10054;59.332;18.244;2023-03-21T11:03:27;100680.77;;;6.92;100.00
19789;BME280;10054;59.332;18.244;2023-03-21T11:06:04;100672.97;;;6.91;100.00
19789;BME280;10054;59.332;18.244;2023-03-21T11:08:39;100673.11;;;6.88;100.00
19789;BME280;10054;59.332;18.244;2023-03-21T11:11:06;100671.20;;;6.91;100.00
19789;BME280;10054;59.332;18.244;2023-03-21T11:13:47;100674.63;;;7.02;100.00
19789;BME280;10054;59.332;18.244;2023-03-21T11:16:31;100666.38;;;7.01;99.53
19789;BME280;10054;59.332;18.244;2023-03-21T11:19:10;100660.74;;;7.00;100.00
19789;BME280;10054;59.332;18.244;2023-03-21T11:21:36;100663.15;;;7.05;100.00
19789;BME280;10054;59.332;18.244;2023-03-21T11:24:07;100659.00;;;7.09;97.89
19789;BME280;10054;59.332;18.244;2023-03-21T11:26:37;100657.17;;;7.20;99.15
19789;BME280;10054;59.332;18.244;2023-03-21T11:29:16;100658.89;;;7.30;98.82
19789;BME280;10054;59.332;18.244;2023-03-21T11:31:40;100656.27;;;7.30;96.37
19789;BME280;10054;59.332;18.244;2023-03-21T11:34:22;100655.66;;;7.33;96.57
19789;BME280;10054;59.332;18.244;2023-03-21T11:36:42;100654.81;;;7.33;96.10
19789;BME280;10054;59.332;18.244;2023-03-21T11:41:59;100653.55;;;7.22;92.59
19789;BME280;10054;59.332;18.244;2023-03-21T11:44:32;100649.30;;;7.20;92.05
19789;BME280;10054;59.332;18.244;2023-03-21T11:47:01;100654.14;;;7.10;90.73
19789;BME280;10054;59.332;18.244;2023-03-21T11:49:30;100644.25;;;7.07;89.38
19789;BME280;10054;59.332;18.244;2023-03-21T11:52:21;100647.44;;;7.13;91.43
19789;BME280;10054;59.332;18.244;2023-03-21T12:01:00;100639.45;;;7.34;88.44
19789;BME280;10054;59.332;18.244;2023-03-21T12:06:01;100635.30;;;7.38;84.48
19789;BME280;10054;59.332;18.244;2023-03-21T12:08:49;100637.92;;;7.38;83.35
19789;BME280;10054;59.332;18.244;2023-03-21T12:11:44;100628.42;;;7.36;83.75
19789;BME280;10054;59.332;18.244;2023-03-21T12:14:43;100633.97;;;7.30;83.52
19789;BME280;10054;59.332;18.244;2023-03-21T12:17:21;100633.03;;;7.22;84.17
19789;BME280;10054;59.332;18.244;2023-03-21T12:20:10;100632.17;;;7.21;84.97
19789;BME280;10054;59.332;18.244;2023-03-21T12:28:19;100633.48;;;7.21;83.51
19789;BME280;10054;59.332;18.244;2023-03-21T12:30:59;100626.23;;;7.18;83.31
19789;BME280;10054;59.332;18.244;2023-03-21T12:39:39;100623.94;;;7.29;85.45
19789;BME280;10054;59.332;18.244;2023-03-21T12:45:03;100621.78;;;7.37;83.09
19789;BME280;10054;59.332;18.244;2023-03-21T12:47:33;100625.39;;;7.52;84.29
19789;BME280;10054;59.332;18.244;2023-03-21T12:53:00;100618.06;;;7.67;84.90
19789;BME280;10054;59.332;18.244;2023-03-21T12:55:34;100607.56;;;7.67;83.50
19789;BME280;10054;59.332;18.244;2023-03-21T12:58:10;100611.89;;;7.68;84.03
19789;BME280;10054;59.332;18.244;2023-03-21T13:00:37;100612.42;;;7.66;84.06
19789;BME280;10054;59.332;18.244;2023-03-21T13:03:15;100602.85;;;7.65;82.98
19789;BME280;10054;59.332;18.244;2023-03-21T13:05:49;100611.03;;;7.59;83.37
19789;BME280;10054;59.332;18.244;2023-03-21T13:08:23;100612.42;;;7.57;84.43
19789;BME280;10054;59.332;18.244;2023-03-21T13:10:53;100610.27;;;7.57;84.44
19789;BME280;10054;59.332;18.244;2023-03-21T13:13:25;100602.70;;;7.51;83.06
19789;BME280;10054;59.332;18.244;2023-03-21T13:16:03;100597.21;;;7.47;83.06
19789;BME280;10054;59.332;18.244;2023-03-21T13:21:40;100596.52;;;7.61;82.32
19789;BME280;10054;59.332;18.244;2023-03-21T13:29:31;100579.22;;;7.74;80.11
19789;BME280;10054;59.332;18.244;2023-03-21T13:32:09;100566.78;;;7.69;80.48
19789;BME280;10054;59.332;18.244;2023-03-21T13:34:38;100565.55;;;7.67;79.85
19789;BME280;10054;59.332;18.244;2023-03-21T13:37:14;100564.55;;;7.61;79.75
19789;BME280;10054;59.332;18.244;2023-03-21T13:39:44;100564.48;;;7.54;79.22
19789;BME280;10054;59.332;18.244;2023-03-21T13:42:22;100566.88;;;7.50;80.06
19789;BME280;10054;59.332;18.244;2023-03-21T13:44:57;100567.64;;;7.52;81.44
19789;BME280;10054;59.332;18.244;2023-03-21T13:47:53;100574.98;;;7.54;80.08
19789;BME280;10054;59.332;18.244;2023-03-21T13:50:28;100577.14;;;7.54;78.20
19789;BME280;10054;59.332;18.244;2023-03-21T13:55:43;100575.83;;;7.63;80.01
19789;BME280;10054;59.332;18.244;2023-03-21T13:58:32;100572.05;;;7.60;76.52
19789;BME280;10054;59.332;18.244;2023-03-21T14:03:58;100563.23;;;7.70;77.97
19789;BME280;10054;59.332;18.244;2023-03-21T14:07:22;100557.59;;;7.77;77.26
19789;BME280;10054;59.332;18.244;2023-03-21T14:09:06;100555.97;;;7.75;77.00
19789;BME280;10054;59.332;18.244;2023-03-21T14:11:36;100548.17;;;7.73;77.21
19789;BME280;10054;59.332;18.244;2023-03-21T14:14:05;100549.79;;;7.76;78.29
19789;BME280;10054;59.332;18.244;2023-03-21T14:16:34;100548.94;;;7.75;76.63
19789;BME280;10054;59.332;18.244;2023-03-21T14:19:05;100540.45;;;7.70;77.42
19789;BME280;10054;59.332;18.244;2023-03-21T14:21:35;100537.83;;;7.70;78.64
19789;BME280;10054;59.332;18.244;2023-03-21T14:24:13;100542.39;;;7.67;77.86